createdAt,value
2019-04-28T00:01:03.304Z,28.21
2019-04-28T00:01:43.381Z,28.19
2019-04-28T00:02:22.484Z,28.16
2019-04-28T00:03:00.758Z,28.16
2019-04-28T00:03:37.116Z,28.15
2019-04-28T00:04:13.511Z,28.13
2019-04-28T00:04:51.446Z,28.11
2019-04-28T00:05:28.836Z,28.13
2019-04-28T00:06:06.314Z,28.12
2019-04-28T00:06:44.632Z,28.11
2019-04-28T00:07:21.741Z,28.11
2019-04-28T00:08:01.371Z,28.10
2019-04-28T00:08:38.952Z,28.08
2019-04-28T00:09:16.445Z,28.09
2019-04-28T00:09:53.458Z,28.09
2019-04-28T00:10:32.150Z,28.08
2019-04-28T00:11:13.418Z,28.06
2019-04-28T00:11:51.609Z,28.02
2019-04-28T00:12:30.879Z,28.04
2019-04-28T00:13:07.689Z,28.05
2019-04-28T00:13:44.342Z,28.05
2019-04-28T00:14:21.879Z,28.05
2019-04-28T00:14:58.544Z,28.06
2019-04-28T00:15:35.740Z,28.06
2019-04-28T00:16:12.797Z,28.05
2019-04-28T00:16:51.080Z,28.03
2019-04-28T00:17:27.684Z,28.05
2019-04-28T00:18:04.261Z,28.02
2019-04-28T00:18:41.565Z,28.00
2019-04-28T00:19:20.762Z,27.99
2019-04-28T00:20:01.240Z,28.00
2019-04-28T00:20:50.976Z,28.00
2019-04-28T00:21:51.569Z,28.00
2019-04-28T00:22:35.241Z,27.97
2019-04-28T00:23:22.961Z,27.97
2019-04-28T00:24:18.590Z,27.96
2019-04-28T00:25:28.818Z,27.95
2019-04-28T00:26:21.157Z,27.92
2019-04-28T00:26:59.143Z,27.94
2019-04-28T00:27:35.951Z,27.93
2019-04-28T00:28:14.415Z,27.93
2019-04-28T00:28:51.355Z,27.91
2019-04-28T00:29:38.482Z,27.90
2019-04-28T00:30:07.566Z,27.86
2019-04-28T00:30:43.830Z,27.88
2019-04-28T00:31:21.322Z,27.90
2019-04-28T00:31:57.758Z,27.89
2019-04-28T00:32:34.092Z,27.88
2019-04-28T00:33:11.707Z,27.87
2019-04-28T00:33:48.275Z,27.87
2019-04-28T00:34:25.211Z,27.88
2019-04-28T00:35:02.306Z,27.83
2019-04-28T00:35:39.520Z,27.82
2019-04-28T00:36:15.886Z,27.85
2019-04-28T00:37:11.138Z,27.82
2019-04-28T00:37:47.824Z,27.81
2019-04-28T00:38:24.558Z,27.79
2019-04-28T00:39:01.564Z,27.75
2019-04-28T00:39:37.957Z,27.77
2019-04-28T00:40:14.442Z,27.75
2019-04-28T00:40:51.167Z,27.79
2019-04-28T00:41:30.760Z,27.78
2019-04-28T00:42:06.881Z,27.74
2019-04-28T00:42:43.482Z,27.73
2019-04-28T00:43:21.721Z,27.75
2019-04-28T00:44:01.944Z,27.75
2019-04-28T00:44:43.064Z,27.75
2019-04-28T00:45:17.800Z,27.75
2019-04-28T00:45:56.259Z,27.78
2019-04-28T00:46:35.045Z,27.78
2019-04-28T00:47:11.255Z,27.78
2019-04-28T00:47:47.674Z,27.76
2019-04-28T00:48:24.482Z,27.79
2019-04-28T00:49:02.104Z,27.80
2019-04-28T00:49:47.465Z,27.82
2019-04-28T00:50:23.733Z,27.84
2019-04-28T00:51:01.795Z,27.86
2019-04-28T00:51:41.475Z,27.87
2019-04-28T00:52:19.044Z,27.88
2019-04-28T00:52:55.379Z,27.88
2019-04-28T00:53:31.774Z,27.85
2019-04-28T00:54:08.030Z,27.88
2019-04-28T00:54:44.934Z,27.89
2019-04-28T00:55:21.273Z,27.91
2019-04-28T00:55:58.116Z,27.93
2019-04-28T00:56:34.445Z,27.93
2019-04-28T00:57:11.298Z,27.95
2019-04-28T00:57:50.925Z,27.96
2019-04-28T00:58:28.639Z,27.97
2019-04-28T00:59:07.515Z,27.98
2019-04-28T00:59:53.956Z,27.99
2019-04-28T01:00:24.551Z,28.01
2019-04-28T01:01:04.656Z,28.01
2019-04-28T01:01:47.600Z,28.01
2019-04-28T01:02:51.826Z,28.01
2019-04-28T01:03:28.511Z,28.01
2019-04-28T01:04:06.260Z,28.01
2019-04-28T01:04:43.367Z,28.03
2019-04-28T01:05:21.700Z,28.04
2019-04-28T01:05:57.934Z,28.04
2019-04-28T01:06:34.232Z,28.04
2019-04-28T01:07:11.502Z,28.05
2019-04-28T01:07:48.550Z,28.05
2019-04-28T01:08:24.701Z,28.04
2019-04-28T01:09:03.800Z,28.04
2019-04-28T01:09:41.459Z,28.07
2019-04-28T01:10:17.561Z,28.08
2019-04-28T01:10:53.931Z,28.08
2019-04-28T01:11:31.659Z,28.09
2019-04-28T01:12:08.121Z,28.12
2019-04-28T01:12:46.637Z,28.12
2019-04-28T01:13:23.824Z,28.16
2019-04-28T01:14:01.723Z,28.18
2019-04-28T01:14:38.620Z,28.21
2019-04-28T01:15:24.019Z,28.23
2019-04-28T01:16:15.557Z,28.23
2019-04-28T01:17:01.756Z,28.26
2019-04-28T01:17:53.997Z,28.24
2019-04-28T01:18:42.461Z,28.25
2019-04-28T01:19:30.062Z,28.27
2019-04-28T01:20:09.788Z,28.28
2019-04-28T01:20:46.007Z,28.28
2019-04-28T01:21:24.810Z,28.29
2019-04-28T01:22:15.841Z,28.30
2019-04-28T01:22:52.547Z,28.31
2019-04-28T01:23:30.268Z,28.35
2019-04-28T01:24:07.098Z,28.35
2019-04-28T01:24:44.737Z,28.36
2019-04-28T01:25:21.638Z,28.38
2019-04-28T01:25:57.901Z,28.39
2019-04-28T01:26:35.041Z,28.42
2019-04-28T01:27:26.221Z,28.43
2019-04-28T01:28:02.423Z,28.44
2019-04-28T01:28:39.877Z,28.45
2019-04-28T01:29:16.139Z,28.47
2019-04-28T01:30:05.177Z,28.48
2019-04-28T01:30:51.995Z,28.50
2019-04-28T01:31:39.999Z,28.50
2019-04-28T01:32:47.488Z,28.51
2019-04-28T01:33:46.370Z,28.53
2019-04-28T01:34:24.211Z,28.51
2019-04-28T01:35:01.311Z,28.52
2019-04-28T01:35:39.192Z,28.53
2019-04-28T01:36:15.847Z,28.56
2019-04-28T01:36:52.193Z,28.55
2019-04-28T01:37:29.687Z,28.56
2019-04-28T01:38:06.960Z,28.58
2019-04-28T01:38:43.948Z,28.58
2019-04-28T01:39:21.146Z,28.59
2019-04-28T01:39:59.670Z,28.58
2019-04-28T01:40:35.877Z,28.60
2019-04-28T01:41:12.453Z,28.61
2019-04-28T01:41:49.584Z,28.64
2019-04-28T01:42:26.791Z,28.63
2019-04-28T01:43:05.572Z,28.66
2019-04-28T01:43:42.142Z,28.70
2019-04-28T01:44:19.834Z,28.70
2019-04-28T01:44:56.205Z,28.71
2019-04-28T01:45:32.574Z,28.72
2019-04-28T01:46:10.176Z,28.75
2019-04-28T01:46:46.497Z,28.77
2019-04-28T01:47:23.397Z,28.77
2019-04-28T01:48:00.533Z,28.79
2019-04-28T01:48:37.598Z,28.81
2019-04-28T01:49:14.283Z,28.83
2019-04-28T01:49:50.591Z,28.85
2019-04-28T01:50:27.513Z,28.87
2019-04-28T01:51:04.458Z,28.90
2019-04-28T01:51:41.580Z,28.92
2019-04-28T01:52:20.253Z,28.94
2019-04-28T01:52:56.457Z,28.95
2019-04-28T01:53:33.493Z,28.94
2019-04-28T01:54:12.625Z,28.94
2019-04-28T01:54:50.187Z,28.99
2019-04-28T01:55:26.588Z,29.00
2019-04-28T01:56:03.531Z,29.03
2019-04-28T01:56:40.433Z,29.05
2019-04-28T01:57:21.322Z,29.09
2019-04-28T01:58:01.065Z,29.12
2019-04-28T01:58:37.979Z,29.15
2019-04-28T01:59:14.725Z,29.19
2019-04-28T01:59:51.049Z,29.20
2019-04-28T02:00:29.576Z,29.24
2019-04-28T02:01:05.831Z,29.25
2019-04-28T02:01:42.334Z,29.28
2019-04-28T02:02:19.900Z,29.32
2019-04-28T02:02:56.188Z,29.34
2019-04-28T02:03:32.683Z,29.37
2019-04-28T02:04:10.148Z,29.40
2019-04-28T02:04:46.286Z,29.42
2019-04-28T02:05:22.931Z,29.45
2019-04-28T02:06:00.168Z,29.48
2019-04-28T02:06:36.538Z,29.51
2019-04-28T02:07:13.544Z,29.58
2019-04-28T02:07:50.579Z,29.61
2019-04-28T02:08:26.962Z,29.64
2019-04-28T02:09:03.256Z,29.64
2019-04-28T02:09:40.366Z,29.67
2019-04-28T02:10:16.743Z,29.69
2019-04-28T02:10:53.324Z,29.71
2019-04-28T02:11:31.716Z,29.71
2019-04-28T02:12:10.534Z,29.72
2019-04-28T02:12:50.328Z,29.75
2019-04-28T02:13:26.840Z,29.76
2019-04-28T02:14:03.053Z,29.79
2019-04-28T02:14:40.375Z,29.80
2019-04-28T02:15:20.293Z,29.79
2019-04-28T02:15:56.863Z,29.82
2019-04-28T02:16:33.052Z,29.78
2019-04-28T02:17:10.496Z,29.83
2019-04-28T02:17:46.883Z,29.82
2019-04-28T02:18:23.195Z,29.87
2019-04-28T02:19:02.249Z,29.87
2019-04-28T02:19:41.157Z,29.87
2019-04-28T02:20:20.265Z,29.87
2019-04-28T02:21:04.010Z,29.90
2019-04-28T02:22:03.896Z,29.90
2019-04-28T02:22:54.074Z,29.90
2019-04-28T02:23:31.545Z,29.91
2019-04-28T02:24:25.622Z,29.90
2019-04-28T02:25:02.011Z,29.80
2019-04-28T02:25:42.317Z,29.80
2019-04-28T02:26:20.893Z,29.79
2019-04-28T02:27:00.830Z,29.76
2019-04-28T02:27:37.388Z,29.80
2019-04-28T02:28:14.050Z,29.77
2019-04-28T02:28:50.824Z,29.77
2019-04-28T02:29:30.050Z,29.78
2019-04-28T02:30:11.362Z,29.68
2019-04-28T02:30:50.324Z,29.64
2019-04-28T02:31:25.647Z,29.66
2019-04-28T02:32:02.673Z,29.66
2019-04-28T02:32:40.687Z,29.66
2019-04-28T02:33:17.295Z,29.60
2019-04-28T02:33:53.938Z,29.60
2019-04-28T02:34:31.325Z,29.60
2019-04-28T02:35:10.705Z,29.60
2019-04-28T02:35:51.171Z,29.60
2019-04-28T02:36:31.094Z,29.64
2019-04-28T02:37:06.128Z,29.65
2019-04-28T02:37:44.688Z,29.63
2019-04-28T02:38:21.238Z,29.66
2019-04-28T02:39:00.759Z,29.71
2019-04-28T02:39:37.244Z,29.75
2019-04-28T02:40:14.156Z,29.85
2019-04-28T02:40:51.233Z,29.94
2019-04-28T02:41:30.638Z,29.94
2019-04-28T02:42:10.944Z,30.01
2019-04-28T02:42:52.121Z,30.07
2019-04-28T02:43:30.767Z,30.05
2019-04-28T02:44:07.031Z,30.05
2019-04-28T02:44:43.378Z,30.08
2019-04-28T02:45:22.464Z,30.18
2019-04-28T02:46:00.709Z,30.23
2019-04-28T02:46:40.736Z,30.28
2019-04-28T02:47:17.326Z,30.41
2019-04-28T02:47:57.674Z,30.47
2019-04-28T02:48:35.608Z,30.49
2019-04-28T02:49:15.644Z,30.49
2019-04-28T02:50:01.058Z,30.67
2019-04-28T02:51:01.653Z,30.67
2019-04-28T02:51:43.933Z,30.80
2019-04-28T02:52:37.666Z,30.88
2019-04-28T02:53:23.740Z,30.91
2019-04-28T02:54:00.678Z,30.91
2019-04-28T02:54:40.402Z,31.06
2019-04-28T02:55:17.774Z,31.12
2019-04-28T02:55:56.234Z,31.19
2019-04-28T02:56:32.463Z,31.28
2019-04-28T02:57:10.762Z,31.28
2019-04-28T02:57:46.998Z,31.36
2019-04-28T02:58:24.509Z,31.41
2019-04-28T02:59:01.243Z,31.48
2019-04-28T02:59:40.920Z,31.54
2019-04-28T03:00:15.785Z,31.63
2019-04-28T03:01:02.860Z,31.69
2019-04-28T03:01:31.486Z,31.80
2019-04-28T03:02:10.371Z,31.94
2019-04-28T03:02:47.139Z,32.14
2019-04-28T03:03:30.806Z,32.28
2019-04-28T03:04:07.442Z,32.37
2019-04-28T03:04:43.970Z,32.57
2019-04-28T03:05:23.020Z,32.68
2019-04-28T03:06:01.365Z,32.73
2019-04-28T03:06:41.140Z,32.78
2019-04-28T03:07:17.522Z,32.75
2019-04-28T03:07:55.257Z,32.77
2019-04-28T03:08:34.465Z,32.81
2019-04-28T03:09:10.870Z,32.78
2019-04-28T03:09:51.969Z,32.78
2019-04-28T03:10:30.714Z,32.75
2019-04-28T03:11:06.331Z,32.76
2019-04-28T03:11:43.106Z,32.77
2019-04-28T03:12:21.529Z,32.74
2019-04-28T03:13:10.822Z,32.73
2019-04-28T03:13:51.257Z,32.71
2019-04-28T03:14:30.244Z,32.68
2019-04-28T03:15:07.292Z,32.68
2019-04-28T03:15:51.538Z,32.67
2019-04-28T03:16:30.393Z,32.66
2019-04-28T03:17:10.715Z,32.66
2019-04-28T03:17:52.445Z,32.67
2019-04-28T03:18:27.887Z,32.69
2019-04-28T03:19:07.469Z,32.69
2019-04-28T03:19:43.925Z,32.68
2019-04-28T03:20:21.543Z,32.69
2019-04-28T03:20:57.988Z,32.65
2019-04-28T03:21:34.386Z,32.65
2019-04-28T03:22:11.702Z,32.67
2019-04-28T03:22:50.806Z,32.62
2019-04-28T03:23:26.119Z,32.64
2019-04-28T03:24:04.761Z,32.64
2019-04-28T03:24:42.497Z,32.64
2019-04-28T03:25:52.737Z,32.64
2019-04-28T03:26:43.994Z,32.65
2019-04-28T03:27:51.243Z,32.63
2019-04-28T03:28:41.363Z,32.60
2019-04-28T03:29:35.908Z,32.53
2019-04-28T03:30:34.861Z,32.50
2019-04-28T03:32:16.405Z,32.51
2019-04-28T03:32:52.468Z,32.51
2019-04-28T03:33:25.607Z,32.47
2019-04-28T03:34:03.391Z,32.41
2019-04-28T03:34:54.181Z,32.43
2019-04-28T03:35:32.618Z,32.41
2019-04-28T03:36:14.785Z,32.39
2019-04-28T03:36:47.028Z,32.39
2019-04-28T03:37:32.451Z,32.37
2019-04-28T03:38:10.750Z,32.38
2019-04-28T03:38:47.323Z,32.35
2019-04-28T03:39:30.342Z,32.36
2019-04-28T03:40:11.745Z,32.36
2019-04-28T03:40:51.037Z,32.36
2019-04-28T03:41:31.198Z,32.33
2019-04-28T03:42:21.552Z,32.32
2019-04-28T03:43:02.868Z,32.33
2019-04-28T03:43:43.566Z,32.33
2019-04-28T03:44:20.903Z,32.31
2019-04-28T03:45:01.028Z,32.32
2019-04-28T03:45:47.317Z,32.34
2019-04-28T03:46:30.487Z,32.35
2019-04-28T03:47:10.483Z,32.37
2019-04-28T03:47:46.333Z,32.38
2019-04-28T03:48:30.839Z,32.40
2019-04-28T03:49:12.980Z,32.41
2019-04-28T03:49:50.534Z,32.45
2019-04-28T03:50:27.198Z,32.43
2019-04-28T03:51:03.549Z,32.44
2019-04-28T03:51:40.796Z,32.43
2019-04-28T03:52:17.151Z,32.47
2019-04-28T03:52:54.044Z,32.48
2019-04-28T03:53:31.281Z,32.49
2019-04-28T03:54:10.265Z,32.52
2019-04-28T03:54:47.542Z,32.54
2019-04-28T03:55:25.640Z,32.56
2019-04-28T03:56:04.884Z,32.59
2019-04-28T03:56:44.564Z,32.62
2019-04-28T03:57:21.914Z,32.66
2019-04-28T03:58:00.971Z,32.67
2019-04-28T03:58:37.143Z,32.69
2019-04-28T03:59:13.763Z,32.71
2019-04-28T03:59:51.124Z,32.75
2019-04-28T04:00:30.923Z,32.80
2019-04-28T04:01:06.045Z,32.84
2019-04-28T04:01:59.261Z,32.85
2019-04-28T04:02:31.383Z,32.87
2019-04-28T04:03:10.665Z,32.88
2019-04-28T04:03:45.915Z,32.91
2019-04-28T04:04:22.280Z,32.93
2019-04-28T04:05:03.404Z,32.98
2019-04-28T04:05:36.913Z,33.03
2019-04-28T04:06:14.473Z,33.09
2019-04-28T04:06:50.997Z,33.13
2019-04-28T04:07:31.201Z,33.19
2019-04-28T04:08:07.553Z,33.25
2019-04-28T04:08:45.211Z,33.32
2019-04-28T04:09:24.249Z,33.41
2019-04-28T04:10:14.426Z,33.50
2019-04-28T04:11:10.906Z,33.63
2019-04-28T04:12:07.063Z,33.81
2019-04-28T04:12:53.565Z,33.95
2019-04-28T04:13:51.203Z,34.01
2019-04-28T04:14:34.129Z,34.08
2019-04-28T04:15:23.566Z,34.21
2019-04-28T04:16:10.356Z,34.23
2019-04-28T04:17:00.954Z,34.30
2019-04-28T04:17:41.508Z,34.29
2019-04-28T04:18:23.102Z,34.31
2019-04-28T04:19:00.718Z,34.31
2019-04-28T04:19:40.504Z,34.34
2019-04-28T04:20:23.767Z,34.37
2019-04-28T04:21:01.012Z,34.37
2019-04-28T04:21:42.736Z,34.42
2019-04-28T04:22:21.333Z,34.43
2019-04-28T04:23:01.431Z,34.52
2019-04-28T04:23:41.159Z,34.57
2019-04-28T04:24:20.864Z,34.74
2019-04-28T04:25:01.252Z,34.85
2019-04-28T04:25:41.976Z,34.95
2019-04-28T04:26:21.399Z,35.05
2019-04-28T04:27:00.806Z,35.19
2019-04-28T04:27:37.376Z,35.34
2019-04-28T04:28:20.268Z,35.45
2019-04-28T04:28:55.807Z,35.49
2019-04-28T04:29:34.922Z,35.54
2019-04-28T04:30:11.296Z,35.53
2019-04-28T04:31:03.569Z,35.52
2019-04-28T04:31:42.627Z,35.51
2019-04-28T04:32:24.232Z,35.49
2019-04-28T04:32:57.221Z,35.52
2019-04-28T04:33:34.600Z,35.56
2019-04-28T04:34:10.888Z,35.65
2019-04-28T04:34:47.194Z,35.74
2019-04-28T04:35:23.609Z,35.77
2019-04-28T04:36:07.430Z,35.80
2019-04-28T04:36:45.243Z,35.82
2019-04-28T04:37:43.010Z,35.79
2019-04-28T04:38:21.894Z,35.72
2019-04-28T04:39:01.399Z,35.71
2019-04-28T04:39:40.721Z,35.73
2019-04-28T04:40:17.279Z,35.80
2019-04-28T04:40:56.517Z,35.84
2019-04-28T04:41:32.775Z,35.81
2019-04-28T04:42:10.501Z,35.83
2019-04-28T04:42:46.995Z,35.80
2019-04-28T04:43:24.621Z,35.84
2019-04-28T04:44:07.330Z,35.83
2019-04-28T04:44:43.569Z,35.84
2019-04-28T04:45:20.309Z,35.82
2019-04-28T04:46:14.138Z,35.81
2019-04-28T04:46:51.141Z,35.73
2019-04-28T04:47:27.375Z,35.66
2019-04-28T04:48:03.768Z,35.62
2019-04-28T04:48:43.300Z,35.58
2019-04-28T04:49:21.556Z,35.60
2019-04-28T04:50:00.202Z,35.57
2019-04-28T04:50:36.079Z,35.55
2019-04-28T04:51:13.710Z,35.51
2019-04-28T04:51:50.933Z,35.52
2019-04-28T04:52:27.383Z,35.46
2019-04-28T04:53:10.969Z,35.44
2019-04-28T04:53:51.225Z,35.41
2019-04-28T04:54:33.662Z,35.39
2019-04-28T04:55:11.104Z,35.36
2019-04-28T04:55:47.525Z,35.35
2019-04-28T04:56:23.740Z,35.32
2019-04-28T04:57:00.182Z,35.32
2019-04-28T04:57:36.478Z,35.32
2019-04-28T04:58:12.798Z,35.28
2019-04-28T04:58:50.427Z,35.31
2019-04-28T04:59:30.049Z,35.31
2019-04-28T05:00:09.910Z,35.36
2019-04-28T05:01:10.650Z,35.36
2019-04-28T05:02:26.748Z,35.34
2019-04-28T05:03:21.101Z,35.27
2019-04-28T05:04:12.901Z,35.19
2019-04-28T05:05:25.993Z,35.22
2019-04-28T05:06:04.012Z,35.38
2019-04-28T05:06:41.590Z,35.50
2019-04-28T05:07:19.569Z,35.51
2019-04-28T05:07:56.109Z,35.53
2019-04-28T05:08:32.855Z,35.56
2019-04-28T05:09:10.676Z,35.58
2019-04-28T05:09:46.970Z,35.53
2019-04-28T05:10:23.866Z,35.52
2019-04-28T05:11:00.955Z,35.48
2019-04-28T05:11:37.384Z,35.46
2019-04-28T05:12:13.784Z,35.46
2019-04-28T05:12:51.830Z,35.48
2019-04-28T05:13:29.919Z,35.48
2019-04-28T05:14:07.587Z,35.50
2019-04-28T05:14:43.996Z,35.55
2019-04-28T05:15:22.930Z,35.59
2019-04-28T05:15:59.855Z,35.66
2019-04-28T05:16:36.345Z,35.69
2019-04-28T05:17:12.628Z,35.74
2019-04-28T05:17:50.103Z,35.74
2019-04-28T05:18:26.384Z,35.80
2019-04-28T05:19:02.672Z,35.83
2019-04-28T05:19:40.196Z,35.84
2019-04-28T05:20:16.615Z,35.82
2019-04-28T05:20:52.889Z,35.79
2019-04-28T05:21:32.868Z,35.76
2019-04-28T05:22:07.316Z,35.77
2019-04-28T05:22:52.649Z,35.71
2019-04-28T05:23:53.510Z,35.70
2019-04-28T05:24:54.494Z,35.69
2019-04-28T05:25:35.725Z,35.71
2019-04-28T05:26:12.922Z,35.80
2019-04-28T05:26:51.423Z,35.85
2019-04-28T05:27:27.480Z,35.95
2019-04-28T05:28:03.763Z,36.04
2019-04-28T05:28:50.575Z,36.09
2019-04-28T05:29:26.462Z,36.12
2019-04-28T05:30:03.783Z,36.17
2019-04-28T05:30:39.655Z,36.20
2019-04-28T05:31:22.956Z,36.20
2019-04-28T05:31:54.747Z,36.20
2019-04-28T05:32:41.621Z,36.21
2019-04-28T05:33:07.558Z,36.23
2019-04-28T05:33:46.284Z,36.24
2019-04-28T05:34:24.246Z,36.26
2019-04-28T05:35:00.697Z,36.26
2019-04-28T05:35:37.000Z,36.26
2019-04-28T05:36:13.284Z,36.29
2019-04-28T05:36:50.529Z,36.29
2019-04-28T05:37:29.630Z,36.32
2019-04-28T05:38:05.976Z,36.33
2019-04-28T05:38:42.831Z,36.43
2019-04-28T05:39:19.645Z,36.52
2019-04-28T05:39:55.980Z,36.61
2019-04-28T05:40:32.278Z,36.70
2019-04-28T05:41:10.564Z,36.79
2019-04-28T05:41:47.334Z,36.87
2019-04-28T05:42:23.656Z,36.89
2019-04-28T05:43:00.861Z,36.95
2019-04-28T05:43:37.503Z,37.05
2019-04-28T05:44:13.818Z,37.11
2019-04-28T05:44:50.566Z,37.17
2019-04-28T05:45:26.956Z,37.23
2019-04-28T05:46:03.325Z,37.27
2019-04-28T05:46:40.362Z,37.33
2019-04-28T05:47:16.703Z,37.38
2019-04-28T05:47:53.069Z,37.43
2019-04-28T05:48:44.638Z,37.45
2019-04-28T05:49:39.742Z,37.49
2019-04-28T05:50:25.012Z,37.54
2019-04-28T05:51:04.863Z,37.60
2019-04-28T05:51:41.524Z,37.64
2019-04-28T05:52:50.126Z,37.68
2019-04-28T05:53:41.545Z,37.73
2019-04-28T05:54:36.759Z,37.75
2019-04-28T05:55:17.653Z,37.78
2019-04-28T05:56:01.221Z,37.87
2019-04-28T05:56:42.955Z,37.92
2019-04-28T05:57:23.427Z,37.97
2019-04-28T05:58:23.329Z,38.01
2019-04-28T05:59:12.716Z,38.04
2019-04-28T06:00:03.547Z,38.05
2019-04-28T06:00:57.273Z,38.08
2019-04-28T06:01:41.064Z,38.11
2019-04-28T06:02:22.110Z,38.14
2019-04-28T06:03:00.667Z,38.06
2019-04-28T06:03:37.631Z,38.09
2019-04-28T06:04:16.236Z,38.13
2019-04-28T06:04:52.581Z,38.08
2019-04-28T06:05:32.013Z,38.06
2019-04-28T06:06:11.809Z,38.06
2019-04-28T06:06:50.227Z,38.00
2019-04-28T06:07:52.233Z,38.02
2019-04-28T06:08:40.633Z,38.01
2019-04-28T06:09:35.983Z,37.96
2019-04-28T06:10:12.487Z,37.98
2019-04-28T06:10:49.848Z,37.97
2019-04-28T06:11:36.326Z,38.03
2019-04-28T06:12:15.041Z,38.05
2019-04-28T06:12:51.370Z,38.09
2019-04-28T06:13:27.698Z,38.10
2019-04-28T06:14:04.281Z,38.13
2019-04-28T06:14:43.399Z,38.17
2019-04-28T06:15:20.437Z,38.21
2019-04-28T06:15:56.776Z,38.29
2019-04-28T06:16:36.611Z,38.35
2019-04-28T06:17:12.993Z,38.44
2019-04-28T06:17:50.535Z,38.49
2019-04-28T06:18:30.775Z,38.54
2019-04-28T06:19:10.279Z,38.56
2019-04-28T06:19:46.789Z,38.59
2019-04-28T06:20:30.392Z,38.60
2019-04-28T06:21:08.364Z,38.66
2019-04-28T06:21:44.874Z,38.65
2019-04-28T06:22:21.242Z,38.49
2019-04-28T06:22:58.403Z,38.43
2019-04-28T06:23:34.673Z,38.34
2019-04-28T06:24:10.912Z,38.24
2019-04-28T06:24:47.274Z,38.13
2019-04-28T06:25:26.340Z,37.95
2019-04-28T06:26:02.688Z,37.81
2019-04-28T06:26:39.204Z,37.68
2019-04-28T06:27:15.587Z,37.56
2019-04-28T06:27:51.914Z,37.45
2019-04-28T06:28:28.273Z,37.36
2019-04-28T06:29:05.191Z,37.29
2019-04-28T06:29:41.493Z,37.23
2019-04-28T06:30:18.077Z,37.24
2019-04-28T06:30:54.423Z,37.26
2019-04-28T06:31:30.752Z,37.20
2019-04-28T06:32:07.286Z,37.25
2019-04-28T06:32:43.672Z,37.30
2019-04-28T06:33:20.068Z,37.36
2019-04-28T06:34:01.118Z,37.37
2019-04-28T06:34:37.496Z,37.37
2019-04-28T06:35:13.849Z,37.45
2019-04-28T06:35:51.495Z,37.49
2019-04-28T06:36:28.008Z,37.56
2019-04-28T06:37:04.555Z,37.65
2019-04-28T06:37:42.058Z,37.73
2019-04-28T06:38:18.395Z,37.73
2019-04-28T06:38:55.969Z,37.79
2019-04-28T06:39:33.278Z,37.81
2019-04-28T06:40:09.615Z,37.84
2019-04-28T06:40:46.151Z,37.91
2019-04-28T06:41:23.589Z,37.95
2019-04-28T06:41:59.899Z,38.04
2019-04-28T06:42:36.334Z,38.06
2019-04-28T06:43:12.828Z,38.11
2019-04-28T06:43:52.793Z,38.17
2019-04-28T06:44:30.496Z,38.23
2019-04-28T06:45:08.287Z,38.27
2019-04-28T06:45:44.526Z,38.32
2019-04-28T06:46:23.759Z,38.37
2019-04-28T06:47:00.082Z,38.43
2019-04-28T06:47:36.513Z,38.47
2019-04-28T06:48:13.040Z,38.45
2019-04-28T06:48:50.646Z,38.50
2019-04-28T06:49:27.009Z,38.55
2019-04-28T06:50:04.926Z,38.58
2019-04-28T06:50:41.296Z,38.65
2019-04-28T06:51:17.629Z,38.69
2019-04-28T06:51:53.840Z,38.74
2019-04-28T06:52:30.034Z,38.76
2019-04-28T06:53:06.295Z,38.78
2019-04-28T06:53:42.540Z,38.79
2019-04-28T06:54:19.116Z,38.81
2019-04-28T06:54:55.654Z,38.84
2019-04-28T06:55:42.653Z,38.86
2019-04-28T06:56:18.953Z,38.88
2019-04-28T06:56:55.376Z,38.85
2019-04-28T06:57:34.217Z,38.81
2019-04-28T06:58:10.404Z,38.74
2019-04-28T06:58:58.370Z,38.77
2019-04-28T06:59:26.206Z,38.76
2019-04-28T07:00:02.740Z,38.75
2019-04-28T07:00:39.406Z,38.74
2019-04-28T07:01:15.823Z,38.75
2019-04-28T07:01:52.659Z,38.77
2019-04-28T07:02:29.050Z,38.76
2019-04-28T07:03:17.074Z,38.79
2019-04-28T07:03:47.349Z,38.81
2019-04-28T07:04:23.615Z,38.85
2019-04-28T07:05:02.329Z,38.86
2019-04-28T07:05:37.929Z,38.90
2019-04-28T07:06:14.473Z,38.96
2019-04-28T07:06:50.803Z,39.01
2019-04-28T07:07:28.916Z,39.01
2019-04-28T07:08:05.175Z,38.97
2019-04-28T07:08:41.718Z,38.97
2019-04-28T07:09:18.003Z,39.00
2019-04-28T07:09:54.434Z,38.95
2019-04-28T07:10:30.602Z,38.93
2019-04-28T07:11:07.057Z,38.89
2019-04-28T07:11:43.389Z,38.85
2019-04-28T07:12:19.768Z,38.79
2019-04-28T07:12:56.137Z,38.78
2019-04-28T07:13:32.422Z,38.72
2019-04-28T07:14:10.282Z,38.70
2019-04-28T07:14:46.513Z,38.68
2019-04-28T07:15:22.826Z,38.65
2019-04-28T07:16:00.372Z,38.66
2019-04-28T07:16:36.814Z,38.67
2019-04-28T07:17:13.184Z,38.66
2019-04-28T07:17:51.506Z,38.69
2019-04-28T07:18:33.327Z,38.71
2019-04-28T07:19:11.085Z,38.76
2019-04-28T07:19:51.380Z,38.80
2019-04-28T07:20:48.002Z,38.74
2019-04-28T07:21:47.440Z,38.76
2019-04-28T07:22:28.272Z,38.74
2019-04-28T07:23:06.116Z,38.66
2019-04-28T07:23:42.485Z,38.66
2019-04-28T07:24:19.062Z,38.66
2019-04-28T07:24:55.929Z,38.61
2019-04-28T07:25:33.730Z,38.58
2019-04-28T07:26:10.276Z,38.56
2019-04-28T07:26:59.741Z,38.54
2019-04-28T07:27:38.997Z,38.50
2019-04-28T07:28:18.380Z,38.44
2019-04-28T07:28:56.094Z,38.35
2019-04-28T07:29:36.971Z,38.28
2019-04-28T07:30:14.214Z,38.25
2019-04-28T07:30:50.750Z,38.17
2019-04-28T07:31:29.655Z,38.07
2019-04-28T07:32:15.206Z,37.97
2019-04-28T07:32:52.214Z,37.88
2019-04-28T07:33:35.881Z,37.79
2019-04-28T07:34:22.044Z,37.70
2019-04-28T07:34:59.903Z,37.61
2019-04-28T07:35:37.411Z,37.51
2019-04-28T07:36:13.865Z,37.45
2019-04-28T07:36:50.652Z,37.36
2019-04-28T07:37:30.237Z,37.37
2019-04-28T07:38:06.685Z,37.30
2019-04-28T07:38:45.496Z,37.32
2019-04-28T07:39:21.834Z,37.27
2019-04-28T07:40:02.669Z,37.22
2019-04-28T07:40:39.418Z,37.27
2019-04-28T07:41:15.818Z,37.27
2019-04-28T07:41:52.113Z,37.22
2019-04-28T07:42:29.632Z,37.17
2019-04-28T07:43:07.440Z,37.10
2019-04-28T07:43:44.829Z,37.05
2019-04-28T07:44:21.226Z,36.99
2019-04-28T07:44:57.627Z,36.92
2019-04-28T07:45:33.974Z,36.91
2019-04-28T07:46:10.366Z,36.88
2019-04-28T07:46:46.780Z,36.95
2019-04-28T07:47:23.030Z,37.00
2019-04-28T07:47:59.476Z,37.07
2019-04-28T07:48:37.233Z,37.13
2019-04-28T07:49:15.061Z,37.11
2019-04-28T07:49:57.630Z,37.11
2019-04-28T07:50:35.184Z,37.11
2019-04-28T07:51:24.641Z,37.09
2019-04-28T07:52:24.675Z,37.08
2019-04-28T07:53:19.001Z,37.03
2019-04-28T07:54:09.374Z,36.99
2019-04-28T07:54:50.753Z,37.00
2019-04-28T07:55:27.094Z,37.01
2019-04-28T07:56:04.393Z,37.02
2019-04-28T07:56:50.976Z,37.08
2019-04-28T07:57:27.500Z,37.06
2019-04-28T07:58:03.715Z,37.12
2019-04-28T07:58:40.925Z,37.10
2019-04-28T07:59:18.627Z,37.07
2019-04-28T07:59:55.744Z,37.01
2019-04-28T08:00:32.475Z,36.96
2019-04-28T08:01:09.887Z,36.88
2019-04-28T08:01:46.398Z,36.82
2019-04-28T08:02:24.559Z,36.76
2019-04-28T08:03:00.953Z,36.66
2019-04-28T08:03:48.679Z,36.62
2019-04-28T08:04:18.032Z,36.59
2019-04-28T08:04:54.976Z,36.55
2019-04-28T08:05:31.331Z,36.53
2019-04-28T08:06:07.726Z,36.47
2019-04-28T08:06:44.055Z,36.43
2019-04-28T08:07:22.599Z,36.37
2019-04-28T08:07:59.037Z,36.31
2019-04-28T08:08:38.995Z,36.24
2019-04-28T08:09:17.770Z,36.20
2019-04-28T08:09:54.275Z,36.12
2019-04-28T08:10:33.824Z,36.08
2019-04-28T08:11:15.283Z,36.05
2019-04-28T08:11:51.848Z,35.99
2019-04-28T08:12:28.792Z,35.95
2019-04-28T08:13:07.766Z,35.87
2019-04-28T08:13:45.501Z,35.80
2019-04-28T08:14:21.958Z,35.75
2019-04-28T08:14:59.788Z,35.72
2019-04-28T08:15:36.117Z,35.69
2019-04-28T08:16:12.557Z,35.65
2019-04-28T08:16:48.966Z,35.60
2019-04-28T08:17:25.360Z,35.54
2019-04-28T08:18:01.850Z,35.48
2019-04-28T08:18:38.190Z,35.45
2019-04-28T08:19:14.600Z,35.39
2019-04-28T08:20:11.770Z,35.33
2019-04-28T08:20:48.074Z,35.30
2019-04-28T08:21:29.219Z,35.27
2019-04-28T08:22:08.313Z,35.19
2019-04-28T08:22:45.072Z,35.15
2019-04-28T08:23:24.002Z,35.12
2019-04-28T08:24:01.531Z,35.11
2019-04-28T08:24:37.795Z,35.15
2019-04-28T08:25:14.364Z,35.23
2019-04-28T08:25:51.319Z,35.34
2019-04-28T08:26:29.691Z,35.43
2019-04-28T08:27:06.667Z,35.49
2019-04-28T08:27:44.447Z,35.52
2019-04-28T08:28:20.960Z,35.57
2019-04-28T08:28:58.592Z,35.55
2019-04-28T08:29:58.956Z,35.55
2019-04-28T08:30:40.716Z,35.56